Time;durP1;ratioP1;P1;durP2;ratioP2;P2;SDS_P1;SDS_P2;PMS_P1;PMS_P2;Temp;Humidity;BMP_temperature;BMP_pressure;BME280_temperature;BME280_humidity;BME280_pressure;Samples;Min_cycle;Max_cycle;Signal;HPM_P1;HPM_P2
2023/02/24 00:00:30;;;;;;;9.80;1.83;;;8.70;99.90;;;;;;5075479;28;20963;-79
2023/02/24 00:02:58;;;;;;;2.50;0.90;;;8.70;99.90;;;;;;5075797;28;20444;-79
2023/02/24 00:05:25;;;;;;;3.27;1.10;;;8.70;99.90;;;;;;5075663;28;20480;-79
2023/02/24 00:07:51;;;;;;;11.73;1.73;;;8.70;99.90;;;;;;5075606;28;20466;-79
2023/02/24 00:10:20;;;;;;;10.63;2.17;;;8.70;99.90;;;;;;5075635;28;20817;-79
2023/02/24 00:12:48;;;;;;;2.57;1.50;;;8.60;99.90;;;;;;5075596;28;20450;-79
2023/02/24 00:15:16;;;;;;;3.20;1.20;;;8.60;99.90;;;;;;5075530;28;20812;-79
2023/02/24 00:17:44;;;;;;;0.80;0.80;;;8.70;99.90;;;;;;5075440;28;20500;-79
2023/02/24 00:20:12;;;;;;;3.50;1.00;;;8.70;99.90;;;;;;5075431;28;20453;-79
2023/02/24 00:22:38;;;;;;;3.77;1.80;;;8.70;99.90;;;;;;5075330;28;20457;-79
2023/02/24 00:25:06;;;;;;;2.13;1.03;;;8.60;99.90;;;;;;5074953;28;20481;-79
2023/02/24 00:27:33;;;;;;;3.30;1.70;;;8.70;99.90;;;;;;5075215;28;20473;-79
2023/02/24 00:30:00;;;;;;;4.23;1.70;;;8.70;99.90;;;;;;5075226;28;20462;-80
2023/02/24 00:32:28;;;;;;;3.80;1.00;;;8.70;99.90;;;;;;5075177;28;20453;-79
2023/02/24 00:34:55;;;;;;;1.37;1.03;;;8.70;99.90;;;;;;5075142;28;20456;-79
2023/02/24 00:37:23;;;;;;;1.57;0.97;;;8.70;99.90;;;;;;5074720;28;20485;-79
2023/02/24 00:39:49;;;;;;;2.60;1.53;;;8.70;99.90;;;;;;5074790;28;20430;-79
2023/02/24 00:42:16;;;;;;;5.43;2.13;;;8.70;99.90;;;;;;5074684;28;20972;-79
2023/02/24 00:44:45;;;;;;;2.30;1.57;;;8.80;99.90;;;;;;5074630;28;20466;-79
2023/02/24 00:47:13;;;;;;;1.70;1.03;;;8.80;99.90;;;;;;5074345;28;20476;-79
2023/02/24 00:49:43;;;;;;;6.30;1.80;;;8.90;99.90;;;;;;5074141;28;20548;-79
2023/02/24 00:52:13;;;;;;;1.90;1.70;;;8.80;99.90;;;;;;5074460;28;20450;-79
2023/02/24 00:54:40;;;;;;;6.50;2.20;;;8.90;99.90;;;;;;5074737;28;20945;-79
2023/02/24 00:57:07;;;;;;;3.07;1.73;;;8.80;99.90;;;;;;5074652;28;20466;-79
2023/02/24 00:59:34;;;;;;;5.57;2.50;;;8.80;99.90;;;;;;5074655;28;20477;-79
2023/02/24 01:02:02;;;;;;;1.93;1.57;;;8.90;99.90;;;;;;5074569;28;20460;-79
2023/02/24 01:04:29;;;;;;;3.17;1.40;;;8.90;99.90;;;;;;5074446;28;20536;-79
2023/02/24 01:07:00;;;;;;;1.70;1.23;;;8.90;99.90;;;;;;5074416;28;20465;-79
2023/02/24 01:09:28;;;;;;;4.97;1.13;;;8.80;99.90;;;;;;5074454;28;20533;-79
2023/02/24 01:14:40;;;;;;;1.80;1.03;;;8.80;99.90;;;;;;5074118;28;20413;-79
2023/02/24 01:17:07;;;;;;;1.80;1.70;;;8.80;99.90;;;;;;5074198;28;20462;-79
2023/02/24 01:19:35;;;;;;;2.20;1.00;;;8.80;99.90;;;;;;5074241;28;20818;-79
2023/02/24 01:22:05;;;;;;;5.20;1.23;;;8.80;99.90;;;;;;5073869;28;20446;-79
2023/02/24 01:24:35;;;;;;;4.13;3.80;;;8.80;99.90;;;;;;5074135;28;20468;-79
2023/02/24 01:27:03;;;;;;;6.93;1.90;;;8.90;99.90;;;;;;5074015;28;20481;-79
2023/02/24 01:29:29;;;;;;;2.80;2.00;;;8.90;99.90;;;;;;5073705;28;20963;-79
2023/02/24 01:31:57;;;;;;;2.10;1.23;;;8.90;99.90;;;;;;5073703;28;20441;-79
2023/02/24 01:34:24;;;;;;;1.50;1.40;;;8.90;99.90;;;;;;5073700;28;20471;-79
2023/02/24 01:36:51;;;;;;;1.63;1.53;;;8.90;99.90;;;;;;5073360;28;20461;-79
2023/02/24 01:39:20;;;;;;;2.60;1.27;;;8.90;99.90;;;;;;5073968;28;20438;-79
2023/02/24 01:41:49;;;;;;;1.30;1.10;;;8.90;99.90;;;;;;5073509;28;20925;-79
2023/02/24 01:44:50;;;;;;;1.63;1.40;;;9.00;99.90;;;;;;5073818;28;20437;-79
2023/02/24 01:47:19;;;;;;;1.80;1.70;;;8.90;99.90;;;;;;5061188;28;20473;-79
2023/02/24 01:49:49;;;;;;;5.20;1.00;;;9.00;99.90;;;;;;5073735;28;20476;-79
2023/02/24 01:52:19;;;;;;;3.30;1.23;;;9.00;99.90;;;;;;5073436;28;20437;-79
2023/02/24 01:54:53;;;;;;;4.23;1.83;;;9.00;99.90;;;;;;5073661;28;20454;-79
2023/02/24 01:57:23;;;;;;;4.20;1.63;;;9.00;99.90;;;;;;5073282;28;20996;-79
2023/02/24 01:59:53;;;;;;;4.57;2.80;;;9.00;99.90;;;;;;5073383;28;20548;-79
2023/02/24 02:02:22;;;;;;;8.67;1.60;;;9.00;99.90;;;;;;5073562;28;20457;-79
2023/02/24 02:04:55;;;;;;;2.50;1.70;;;9.00;99.90;;;;;;5073435;28;20479;-79
2023/02/24 02:07:25;;;;;;;1.70;0.80;;;9.00;99.90;;;;;;5073469;28;20522;-79
2023/02/24 02:09:54;;;;;;;1.93;1.83;;;9.00;99.90;;;;;;5073489;28;20445;-79
2023/02/24 02:12:22;;;;;;;3.80;1.40;;;9.00;99.90;;;;;;5073454;28;20524;-79
2023/02/24 02:14:52;;;;;;;4.57;2.60;;;9.00;99.90;;;;;;5073101;28;20453;-79
2023/02/24 02:17:25;;;;;;;1.70;1.03;;;9.00;99.90;;;;;;5073362;28;20465;-79
2023/02/24 02:20:18;;;;;;;5.43;2.60;;;9.00;99.90;;;;;;5073411;28;20425;-79
2023/02/24 02:22:59;;;;;;;5.67;2.20;;;9.00;99.90;;;;;;5073167;28;20444;-79
2023/02/24 02:25:41;;;;;;;4.20;2.80;;;9.00;99.90;;;;;;5073289;28;20469;-79
2023/02/24 02:28:30;;;;;;;5.20;1.70;;;9.00;99.90;;;;;;5072984;28;20823;-79
2023/02/24 02:31:31;;;;;;;1.53;1.30;;;9.00;99.90;;;;;;5073278;28;20438;-79
2023/02/24 02:34:24;;;;;;;2.53;1.83;;;8.90;99.90;;;;;;5073285;28;20449;-79
2023/02/24 02:37:04;;;;;;;4.40;2.23;;;9.00;99.90;;;;;;5073120;28;20826;-79
2023/02/24 02:39:42;;;;;;;7.33;2.00;;;9.00;99.90;;;;;;5073211;28;20445;-79
2023/02/24 02:42:18;;;;;;;2.83;1.67;;;8.90;99.90;;;;;;5073191;28;20434;-79
2023/02/24 02:44:54;;;;;;;2.80;1.23;;;9.00;99.90;;;;;;5073187;28;20436;-79
2023/02/24 02:47:26;;;;;;;4.43;1.83;;;9.00;99.90;;;;;;5073070;28;20522;-79
2023/02/24 02:49:59;;;;;;;1.80;0.97;;;9.00;99.90;;;;;;5072791;28;20434;-79
2023/02/24 02:52:31;;;;;;;3.20;1.93;;;9.00;99.90;;;;;;5072822;28;20902;-79
2023/02/24 02:55:01;;;;;;;5.37;2.40;;;9.00;99.90;;;;;;5073070;28;20429;-79
2023/02/24 02:57:30;;;;;;;3.77;1.57;;;9.00;99.90;;;;;;5072665;28;20903;-79
2023/02/24 03:00:07;;;;;;;4.97;1.70;;;9.00;99.90;;;;;;5073000;28;20445;-79
2023/02/24 03:02:38;;;;;;;1.70;1.60;;;9.00;99.90;;;;;;5072989;28;20791;-79
2023/02/24 03:05:09;;;;;;;5.47;1.77;;;9.00;99.90;;;;;;5072890;28;20441;-79
2023/02/24 03:07:41;;;;;;;1.30;1.20;;;8.90;99.90;;;;;;5072885;28;20526;-79
2023/02/24 03:10:16;;;;;;;4.53;1.90;;;8.90;99.90;;;;;;5072939;28;20475;-79
2023/02/24 03:12:46;;;;;;;5.10;1.83;;;8.90;99.90;;;;;;5076199;28;20439;-78
2023/02/24 03:15:14;;;;;;;5.27;2.07;;;8.90;99.90;;;;;;5076706;28;20869;-78
2023/02/24 03:17:45;;;;;;;3.67;2.07;;;8.90;99.90;;;;;;5076463;28;20491;-78
2023/02/24 03:20:21;;;;;;;3.37;1.53;;;8.90;99.90;;;;;;5076579;28;20433;-77
2023/02/24 03:22:53;;;;;;;3.57;1.43;;;8.90;99.90;;;;;;5076539;28;20467;-78
2023/02/24 03:25:24;;;;;;;1.03;0.87;;;8.90;99.90;;;;;;5076453;28;20422;-77
2023/02/24 03:28:00;;;;;;;3.50;1.47;;;8.90;99.90;;;;;;5076383;28;20465;-78
2023/02/24 03:30:31;;;;;;;4.40;2.30;;;9.00;99.90;;;;;;5076422;28;20473;-78
2023/02/24 03:33:05;;;;;;;4.50;2.63;;;8.90;99.90;;;;;;5076369;28;20429;-78
2023/02/24 03:35:38;;;;;;;5.23;1.67;;;8.90;99.90;;;;;;5076331;28;20440;-77
2023/02/24 03:38:06;;;;;;;7.87;2.93;;;8.90;99.90;;;;;;5075862;28;20487;-78
2023/02/24 03:40:34;;;;;;;4.90;3.47;;;8.90;99.90;;;;;;5076186;28;20864;-78
2023/02/24 03:43:08;;;;;;;8.10;1.83;;;8.90;99.90;;;;;;5076123;28;20449;-78
2023/02/24 03:45:37;;;;;;;7.30;3.33;;;9.00;99.90;;;;;;5075725;28;20992;-78
2023/02/24 03:48:06;;;;;;;6.30;1.83;;;9.00;99.90;;;;;;5076018;28;20473;-78
2023/02/24 03:50:35;;;;;;;4.37;2.20;;;9.00;99.90;;;;;;5075989;28;20445;-78
2023/02/24 03:53:16;;;;;;;4.80;2.20;;;9.00;99.90;;;;;;5075638;28;20441;-78
2023/02/24 03:55:59;;;;;;;7.23;2.80;;;9.00;99.90;;;;;;5075648;28;20937;-78
2023/02/24 03:58:34;;;;;;;2.70;1.40;;;9.00;99.90;;;;;;5075831;28;20501;-78
2023/02/24 04:01:09;;;;;;;3.63;1.47;;;9.00;99.90;;;;;;5075848;28;20433;-78
2023/02/24 04:03:46;;;;;;;9.23;2.40;;;9.00;99.90;;;;;;5076654;28;20440;-78
2023/02/24 04:06:20;;;;;;;3.73;1.60;;;9.00;99.90;;;;;;5075682;28;20491;-78
2023/02/24 04:08:52;;;;;;;3.50;1.80;;;8.90;99.90;;;;;;5075729;28;20438;-78
2023/02/24 04:11:24;;;;;;;4.97;2.17;;;8.90;99.90;;;;;;5075717;28;20430;-78
2023/02/24 04:13:58;;;;;;;3.70;2.67;;;8.90;99.90;;;;;;5075623;28;20430;-78
2023/02/24 04:16:35;;;;;;;2.80;1.20;;;8.90;99.90;;;;;;5075440;28;20511;-78
2023/02/24 04:19:06;;;;;;;6.83;3.30;;;8.90;99.90;;;;;;5075548;28;20476;-78
2023/02/24 04:21:37;;;;;;;2.23;1.90;;;8.90;99.90;;;;;;5075168;28;20917;-78
2023/02/24 04:24:10;;;;;;;4.40;1.10;;;8.90;99.90;;;;;;5075441;28;20438;-78
2023/02/24 04:26:39;;;;;;;5.57;3.10;;;8.80;99.90;;;;;;5075231;28;20473;-78
2023/02/24 04:29:06;;;;;;;7.50;2.50;;;8.80;99.90;;;;;;5075266;28;20445;-78
2023/02/24 04:31:34;;;;;;;6.43;2.40;;;8.80;99.90;;;;;;5075198;28;20473;-78
2023/02/24 04:34:01;;;;;;;6.13;2.47;;;8.80;99.90;;;;;;5075205;28;20457;-78
2023/02/24 04:36:28;;;;;;;14.70;4.00;;;8.70;99.90;;;;;;5075040;28;20449;-78
2023/02/24 04:38:56;;;;;;;3.53;2.40;;;8.70;99.90;;;;;;5074606;28;20988;-78
2023/02/24 04:41:23;;;;;;;11.67;3.20;;;8.70;99.90;;;;;;5075015;28;20446;-78
2023/02/24 04:43:50;;;;;;;7.37;2.47;;;8.70;99.90;;;;;;5074986;28;20442;-78
2023/02/24 04:46:19;;;;;;;2.73;1.70;;;8.70;99.90;;;;;;5074877;28;20488;-78
2023/02/24 04:48:46;;;;;;;3.83;1.80;;;8.70;99.90;;;;;;5074844;28;20489;-78
2023/02/24 04:51:13;;;;;;;23.53;2.20;;;8.70;99.90;;;;;;5074812;28;20445;-78
2023/02/24 04:53:40;;;;;;;5.23;2.40;;;8.70;99.90;;;;;;5074468;28;20503;-78
2023/02/24 04:56:08;;;;;;;4.37;2.37;;;8.70;99.90;;;;;;5074413;28;20948;-78
2023/02/24 04:58:37;;;;;;;5.93;2.13;;;8.70;99.90;;;;;;5074619;28;20476;-78
2023/02/24 05:01:09;;;;;;;7.90;2.17;;;8.70;99.90;;;;;;5074676;28;20849;-78
2023/02/24 05:03:40;;;;;;;1.03;1.00;;;8.60;99.90;;;;;;5074588;28;20441;-78
2023/02/24 05:06:12;;;;;;;3.43;1.73;;;8.60;99.90;;;;;;5074499;28;20560;-78
2023/02/24 05:08:39;;;;;;;2.27;0.93;;;8.60;99.90;;;;;;5074476;28;20513;-78
2023/02/24 05:11:14;;;;;;;2.87;1.47;;;8.60;99.90;;;;;;5074440;28;20456;-78
2023/02/24 05:13:44;;;;;;;2.43;1.90;;;8.60;99.90;;;;;;5074439;28;20437;-78
2023/02/24 05:16:13;;;;;;;3.47;2.40;;;8.60;99.90;;;;;;5074391;28;20689;-78
2023/02/24 05:18:41;;;;;;;7.80;2.70;;;8.50;99.90;;;;;;5073953;28;20522;-78
2023/02/24 05:23:57;;;;;;;5.23;1.33;;;8.60;99.90;;;;;;5074286;28;20521;-78
2023/02/24 05:26:26;;;;;;;3.03;1.40;;;8.60;99.90;;;;;;5074021;28;20481;-78
2023/02/24 05:28:55;;;;;;;2.43;2.00;;;8.60;99.90;;;;;;5074097;28;20441;-78
2023/02/24 05:31:24;;;;;;;1.33;0.80;;;8.60;99.90;;;;;;5073752;28;20886;-78
2023/02/24 05:33:54;;;;;;;1.57;0.83;;;8.50;99.90;;;;;;5073564;28;20587;-78
2023/02/24 05:36:22;;;;;;;5.43;1.13;;;8.60;99.90;;;;;;5074092;28;20488;-78
2023/02/24 05:38:54;;;;;;;6.73;2.47;;;8.50;99.90;;;;;;5073481;28;20485;-78
2023/02/24 05:41:22;;;;;;;5.47;1.53;;;8.50;99.90;;;;;;5073936;28;20437;-78
2023/02/24 05:43:53;;;;;;;10.33;2.00;;;8.50;99.90;;;;;;5073820;28;20453;-78
2023/02/24 05:46:26;;;;;;;6.43;2.03;;;8.50;99.90;;;;;;5073492;28;20557;-78
2023/02/24 05:48:55;;;;;;;4.37;1.03;;;8.40;99.90;;;;;;5073488;28;20436;-78
2023/02/24 05:51:23;;;;;;;3.73;1.27;;;8.40;99.90;;;;;;5073702;28;20499;-78
2023/02/24 05:53:54;;;;;;;7.97;1.53;;;8.40;99.90;;;;;;5073716;28;20449;-78
2023/02/24 05:56:21;;;;;;;3.77;1.50;;;8.40;99.90;;;;;;5073712;28;20461;-78
2023/02/24 05:59:00;;;;;;;4.13;2.23;;;8.40;99.90;;;;;;5073635;28;20453;-78
2023/02/24 06:01:29;;;;;;;4.10;1.07;;;8.40;99.90;;;;;;5073620;28;20499;-78
2023/02/24 06:03:56;;;;;;;9.00;3.43;;;8.40;99.90;;;;;;5073547;28;20460;-79
2023/02/24 06:06:23;;;;;;;4.67;1.97;;;8.40;99.90;;;;;;5073399;28;20593;-78
2023/02/24 06:08:50;;;;;;;8.30;2.77;;;8.40;99.90;;;;;;5073538;28;20481;-78
2023/02/24 06:11:19;;;;;;;4.80;2.23;;;8.40;99.90;;;;;;5073478;28;20484;-78
2023/02/24 06:13:47;;;;;;;4.47;0.90;;;8.40;99.90;;;;;;5074003;28;20449;-78
2023/02/24 06:16:16;;;;;;;7.83;2.07;;;8.50;99.90;;;;;;5073426;28;20503;-78
2023/02/24 06:18:47;;;;;;;5.37;2.13;;;8.50;99.90;;;;;;5073303;28;20484;-78
2023/02/24 06:21:13;;;;;;;5.63;2.30;;;8.50;99.90;;;;;;5074034;28;20797;-78
2023/02/24 06:23:40;;;;;;;5.30;1.80;;;8.40;99.90;;;;;;5073345;28;20442;-78
2023/02/24 06:26:11;;;;;;;3.90;1.93;;;8.50;99.90;;;;;;5073269;28;20841;-78
2023/02/24 06:28:42;;;;;;;5.90;1.57;;;8.50;99.90;;;;;;5073794;28;20534;-78
2023/02/24 06:31:09;;;;;;;5.40;1.63;;;8.50;99.90;;;;;;5073301;28;20429;-78
2023/02/24 06:33:39;;;;;;;6.50;2.97;;;8.50;99.90;;;;;;5073229;28;20815;-78
2023/02/24 06:36:07;;;;;;;6.47;1.90;;;8.50;99.90;;;;;;5073194;28;20450;-78
2023/02/24 06:38:36;;;;;;;5.47;2.57;;;8.50;99.90;;;;;;5072755;28;20484;-78
2023/02/24 06:41:09;;;;;;;8.77;3.10;;;8.40;99.90;;;;;;5073187;28;20454;-78
2023/02/24 06:43:37;;;;;;;2.67;1.27;;;8.50;99.90;;;;;;5073212;28;20434;-78
2023/02/24 06:46:04;;;;;;;3.67;2.13;;;8.50;99.90;;;;;;5073883;28;20857;-78
2023/02/24 06:48:32;;;;;;;3.10;1.70;;;8.50;99.90;;;;;;5077073;28;20516;-78
2023/02/24 06:51:03;;;;;;;5.73;1.70;;;8.50;99.90;;;;;;5076837;28;20936;-78
2023/02/24 06:53:33;;;;;;;11.97;2.53;;;8.50;99.90;;;;;;5076823;28;20806;-78
2023/02/24 06:56:05;;;;;;;5.23;2.20;;;8.50;99.90;;;;;;5076737;28;21015;-78
2023/02/24 06:58:33;;;;;;;2.33;1.80;;;8.60;99.90;;;;;;5076958;28;20518;-78
2023/02/24 07:01:01;;;;;;;7.07;1.40;;;8.60;99.90;;;;;;5076940;28;20479;-78
2023/02/24 07:03:38;;;;;;;3.90;1.73;;;8.60;99.90;;;;;;5076881;28;20453;-78
2023/02/24 07:06:20;;;;;;;4.97;1.57;;;8.60;99.90;;;;;;5077336;28;20437;-78
2023/02/24 07:08:48;;;;;;;9.27;1.73;;;8.50;99.90;;;;;;5076888;28;20429;-78
2023/02/24 07:11:17;;;;;;;10.90;2.50;;;8.50;99.90;;;;;;5076778;28;20445;-78
2023/02/24 07:13:46;;;;;;;3.77;2.10;;;8.50;99.90;;;;;;5076376;28;20951;-78
2023/02/24 07:16:14;;;;;;;8.53;2.67;;;8.50;99.90;;;;;;5076667;28;20445;-78
2023/02/24 07:18:42;;;;;;;1.90;1.80;;;8.50;99.90;;;;;;5076566;28;20477;-78
2023/02/24 07:21:11;;;;;;;12.50;2.37;;;8.50;99.90;;;;;;5076557;28;20441;-78
2023/02/24 07:23:39;;;;;;;2.60;2.13;;;8.60;99.90;;;;;;5076211;28;20495;-78
2023/02/24 07:26:10;;;;;;;6.10;2.83;;;8.60;99.90;;;;;;5076462;28;20452;-78
2023/02/24 07:28:38;;;;;;;2.77;1.63;;;8.70;99.90;;;;;;5076278;28;20480;-78
2023/02/24 07:31:07;;;;;;;6.03;3.23;;;8.80;99.90;;;;;;5076319;28;21019;-78
2023/02/24 07:33:35;;;;;;;3.80;2.10;;;8.80;99.90;;;;;;5076321;28;20445;-78
2023/02/24 07:36:07;;;;;;;4.57;1.80;;;8.80;99.90;;;;;;5076305;28;20549;-78
2023/02/24 07:38:36;;;;;;;3.00;1.87;;;8.90;99.90;;;;;;5075696;28;21010;-78
2023/02/24 07:41:05;;;;;;;7.40;2.33;;;8.90;99.90;;;;;;5075856;28;20979;-78
2023/02/24 07:43:32;;;;;;;2.83;2.13;;;8.90;99.90;;;;;;5076202;28;20441;-78
2023/02/24 07:46:06;;;;;;;3.77;1.87;;;9.00;99.90;;;;;;5075788;28;20448;-78
2023/02/24 07:48:33;;;;;;;4.97;1.93;;;9.00;99.90;;;;;;5075974;28;20531;-78
2023/02/24 07:51:00;;;;;;;3.87;1.90;;;9.00;99.90;;;;;;5076034;28;20536;-78
2023/02/24 07:53:27;;;;;;;5.57;2.00;;;9.00;99.90;;;;;;5075958;28;20445;-78
2023/02/24 07:55:55;;;;;;;2.90;1.70;;;9.00;99.90;;;;;;5075900;28;20530;-79
2023/02/24 07:58:22;;;;;;;4.87;2.50;;;9.00;99.90;;;;;;5075360;28;20461;-78
2023/02/24 08:00:59;;;;;;;6.50;1.53;;;9.00;99.90;;;;;;5075814;28;20481;-78
2023/02/24 08:03:28;;;;;;;8.37;1.67;;;9.10;99.90;;;;;;5075464;28;20897;-78
2023/02/24 08:05:59;;;;;;;1.50;1.40;;;9.10;99.90;;;;;;5075739;28;20485;-78
2023/02/24 08:08:26;;;;;;;13.13;2.90;;;9.10;99.90;;;;;;5075275;28;20988;-78
2023/02/24 08:11:02;;;;;;;3.77;1.73;;;9.00;99.90;;;;;;5075369;28;21000;-78
2023/02/24 08:13:36;;;;;;;4.27;2.00;;;9.00;99.90;;;;;;5075712;28;20451;-78
2023/02/24 08:16:05;;;;;;;2.93;1.77;;;9.10;99.90;;;;;;5075518;28;20460;-78
2023/02/24 08:18:36;;;;;;;8.23;1.80;;;9.10;99.90;;;;;;5075192;28;20988;-78
2023/02/24 08:21:03;;;;;;;3.37;2.33;;;9.10;99.90;;;;;;5075499;28;20544;-78
2023/02/24 08:23:33;;;;;;;9.03;2.93;;;9.10;99.90;;;;;;5075452;28;20528;-79
2023/02/24 08:26:02;;;;;;;7.43;1.37;;;9.10;99.90;;;;;;5075335;28;20450;-78
2023/02/24 08:28:30;;;;;;;5.57;1.87;;;9.20;99.90;;;;;;5075155;28;20486;-78
2023/02/24 08:30:57;;;;;;;5.20;1.33;;;9.30;99.90;;;;;;5075249;28;20504;-78
2023/02/24 08:33:28;;;;;;;3.13;1.63;;;9.40;99.90;;;;;;5075191;28;20446;-78
2023/02/24 08:35:59;;;;;;;6.43;1.27;;;9.50;99.90;;;;;;5075200;28;20544;-78
2023/02/24 08:38:38;;;;;;;4.80;2.00;;;9.70;99.90;;;;;;5074706;28;20512;-78
2023/02/24 08:41:06;;;;;;;3.77;2.17;;;9.70;99.90;;;;;;5075101;28;20429;-78
2023/02/24 08:43:40;;;;;;;2.13;1.30;;;9.80;99.90;;;;;;5075013;28;20480;-78
2023/02/24 08:46:18;;;;;;;1.63;1.10;;;9.80;99.90;;;;;;5074742;28;20487;-78
2023/02/24 08:48:47;;;;;;;2.37;1.57;;;9.80;99.90;;;;;;5074500;28;20492;-78
2023/02/24 08:51:21;;;;;;;1.83;1.27;;;9.90;99.90;;;;;;5074890;28;20449;-78
2023/02/24 08:53:51;;;;;;;7.00;2.00;;;10.00;99.90;;;;;;5074894;28;20469;-78
2023/02/24 08:56:23;;;;;;;3.43;1.77;;;10.00;99.90;;;;;;5074800;28;20437;-78
2023/02/24 08:58:55;;;;;;;1.80;1.70;;;10.00;99.90;;;;;;5074497;28;20781;-78
2023/02/24 09:01:25;;;;;;;8.20;2.40;;;10.00;99.90;;;;;;5074774;28;20464;-78
2023/02/24 09:03:54;;;;;;;9.53;2.40;;;10.10;99.90;;;;;;5074638;28;20454;-78
2023/02/24 09:06:25;;;;;;;5.10;1.93;;;10.20;99.90;;;;;;5074472;28;20458;-78
2023/02/24 09:09:16;;;;;;;6.03;2.27;;;10.20;99.90;;;;;;5073646;28;20496;-78
2023/02/24 09:11:43;;;;;;;4.33;3.20;;;10.30;99.90;;;;;;5074092;28;20521;-78
2023/02/24 09:14:16;;;;;;;13.20;2.27;;;10.40;99.90;;;;;;5074472;28;20421;-78
2023/02/24 09:17:00;;;;;;;2.53;1.53;;;10.60;99.90;;;;;;5074329;28;20465;-78
2023/02/24 09:20:22;;;;;;;2.53;1.17;;;10.70;99.90;;;;;;5074327;28;20496;-78
2023/02/24 09:22:30;;;;;;;1.73;1.60;;;10.60;99.90;;;;;;5073792;28;20529;-79
2023/02/24 09:25:16;;;;;;;4.43;1.97;;;10.50;99.90;;;;;;5073907;28;20499;-78
2023/02/24 09:27:45;;;;;;;5.10;2.20;;;10.40;99.90;;;;;;5074054;28;20531;-78
2023/02/24 09:30:34;;;;;;;2.90;1.63;;;10.30;99.90;;;;;;5074099;28;20541;-78
2023/02/24 09:33:04;;;;;;;3.23;1.43;;;10.10;99.90;;;;;;5074129;28;20430;-78
2023/02/24 09:35:35;;;;;;;2.30;1.10;;;10.00;99.90;;;;;;5073684;28;20799;-78
2023/02/24 09:38:05;;;;;;;1.50;0.87;;;10.10;99.90;;;;;;5073594;28;20485;-78
2023/02/24 09:40:47;;;;;;;6.00;2.90;;;10.20;99.90;;;;;;5073866;28;20453;-78
2023/02/24 09:43:17;;;;;;;2.00;1.37;;;10.20;99.90;;;;;;5073618;28;20922;-78
2023/02/24 09:45:57;;;;;;;6.27;1.77;;;10.30;99.90;;;;;;5073549;28;20437;-78
2023/02/24 09:48:42;;;;;;;3.37;1.90;;;10.50;99.90;;;;;;5073356;28;20825;-78
2023/02/24 09:51:20;;;;;;;4.87;1.33;;;10.70;99.90;;;;;;5074191;28;20837;-78
2023/02/24 09:53:51;;;;;;;3.13;1.93;;;11.20;99.90;;;;;;5073722;28;20448;-78
2023/02/24 09:56:22;;;;;;;2.30;1.20;;;11.50;99.90;;;;;;5073704;28;20430;-78
2023/02/24 09:58:54;;;;;;;3.57;1.13;;;11.70;99.90;;;;;;5073403;28;20778;-78
2023/02/24 10:01:32;;;;;;;5.83;1.20;;;11.80;99.90;;;;;;5073364;28;20918;-78
2023/02/24 10:04:05;;;;;;;2.73;1.27;;;11.80;99.90;;;;;;5074165;28;20521;-78
2023/02/24 10:06:38;;;;;;;1.17;0.80;;;11.80;99.90;;;;;;5073230;28;20936;-78
2023/02/24 10:09:12;;;;;;;2.47;1.23;;;11.90;99.90;;;;;;5073527;28;20834;-78
2023/02/24 10:11:52;;;;;;;2.20;1.17;;;12.00;99.90;;;;;;5074338;28;20426;-78
2023/02/24 10:14:27;;;;;;;2.57;1.20;;;12.10;99.90;;;;;;5073076;28;20434;-78
2023/02/24 10:19:41;;;;;;;2.73;0.53;;;12.10;99.90;;;;;;5073310;28;20452;-78
2023/02/24 10:22:26;;;;;;;6.20;1.43;;;12.20;99.90;;;;;;5073335;28;20445;-79
2023/02/24 10:25:09;;;;;;;2.33;0.80;;;12.20;99.90;;;;;;5073034;28;20919;-78
2023/02/24 10:27:41;;;;;;;1.33;1.23;;;12.10;99.90;;;;;;5073200;28;20501;-78
2023/02/24 10:30:18;;;;;;;3.60;1.97;;;12.10;99.90;;;;;;5073707;28;20796;-78
2023/02/24 10:32:51;;;;;;;3.67;1.30;;;12.30;99.90;;;;;;5073280;28;20429;-78
2023/02/24 10:35:24;;;;;;;1.00;0.73;;;12.40;99.90;;;;;;5073280;28;20436;-78
2023/02/24 10:37:52;;;;;;;3.43;1.57;;;12.50;99.90;;;;;;5072862;28;20473;-78
2023/02/24 10:40:26;;;;;;;2.50;0.80;;;12.50;99.90;;;;;;5072894;28;20937;-78
2023/02/24 10:43:09;;;;;;;1.60;0.90;;;12.50;99.90;;;;;;5072914;28;20441;-78
2023/02/24 10:45:43;;;;;;;10.23;1.23;;;12.40;99.90;;;;;;5073168;28;20430;-79
2023/02/24 10:48:23;;;;;;;2.40;0.70;;;12.30;99.90;;;;;;5072712;28;20968;-79
2023/02/24 10:50:53;;;;;;;4.77;1.97;;;12.20;99.90;;;;;;5073188;28;20437;-78
2023/02/24 10:53:33;;;;;;;1.37;1.10;;;12.00;99.90;;;;;;5072777;28;20449;-78
2023/02/24 10:56:25;;;;;;;1.43;0.60;;;11.80;99.90;;;;;;5073159;28;20515;-79
2023/02/24 10:59:19;;;;;;;1.47;1.20;;;11.70;99.90;;;;;;5073078;28;20438;-79
2023/02/24 11:01:58;;;;;;;1.93;1.00;;;11.70;99.90;;;;;;5073032;28;20488;-78
2023/02/24 11:04:52;;;;;;;6.57;1.20;;;11.40;99.90;;;;;;5072944;28;20844;-79
2023/02/24 11:07:24;;;;;;;1.43;1.33;;;11.40;99.90;;;;;;5072940;28;20517;-78
2023/02/24 11:10:10;;;;;;;1.60;0.80;;;11.30;99.90;;;;;;5072913;28;20461;-78
2023/02/24 11:18:19;;;;;;;7.20;1.13;;;10.90;99.90;;;;;;5072631;28;20437;-79
2023/02/24 11:20:49;;;;;;;2.17;1.20;;;10.80;99.90;;;;;;5072557;28;20433;-78
2023/02/24 11:23:20;;;;;;;3.60;1.63;;;10.70;99.90;;;;;;5072558;28;20434;-78
2023/02/24 11:25:49;;;;;;;3.30;1.40;;;10.50;99.90;;;;;;5072490;28;20905;-78
2023/02/24 11:28:26;;;;;;;8.70;2.47;;;10.40;99.90;;;;;;5072590;28;20488;-78
2023/02/24 11:31:02;;;;;;;7.90;1.27;;;10.30;99.90;;;;;;5072792;28;20473;-78
2023/02/24 11:33:38;;;;;;;5.50;1.43;;;10.30;99.90;;;;;;5075590;28;20429;-78
2023/02/24 11:36:14;;;;;;;2.67;1.40;;;10.20;99.90;;;;;;5076035;28;20461;-79
2023/02/24 11:38:46;;;;;;;2.20;1.10;;;10.30;99.90;;;;;;5075789;28;20964;-78
2023/02/24 11:41:21;;;;;;;4.20;1.80;;;10.30;99.90;;;;;;5076282;28;20440;-78
2023/02/24 11:43:57;;;;;;;4.80;1.70;;;10.40;99.90;;;;;;5076218;28;20432;-78
2023/02/24 11:46:33;;;;;;;2.30;1.17;;;10.40;99.90;;;;;;5076113;28;20432;-78
2023/02/24 11:49:03;;;;;;;1.27;0.90;;;10.50;99.90;;;;;;5076063;28;20464;-79
2023/02/24 11:51:34;;;;;;;1.30;0.90;;;10.60;99.90;;;;;;5076093;28;20449;-78
2023/02/24 11:54:05;;;;;;;4.50;1.00;;;10.70;99.90;;;;;;5076056;28;20528;-78
2023/02/24 11:56:34;;;;;;;5.03;1.43;;;10.80;99.90;;;;;;5075975;28;20430;-78
2023/02/24 11:59:05;;;;;;;0.93;0.80;;;11.10;99.90;;;;;;5075936;28;20442;-78
2023/02/24 12:01:39;;;;;;;2.67;1.70;;;11.40;99.90;;;;;;5075899;28;20429;-79
2023/02/24 12:04:14;;;;;;;4.43;1.40;;;11.70;99.90;;;;;;5076165;28;20427;-79
2023/02/24 12:06:49;;;;;;;1.03;0.90;;;12.00;99.90;;;;;;5075734;28;20440;-80
2023/02/24 12:09:19;;;;;;;0.97;0.90;;;12.30;99.90;;;;;;5075711;28;20468;-77
2023/02/24 12:11:54;;;;;;;4.67;1.50;;;12.60;99.90;;;;;;5075410;28;20434;-79
2023/02/24 12:14:35;;;;;;;1.70;1.20;;;12.80;99.90;;;;;;5075913;28;20920;-78
2023/02/24 12:17:16;;;;;;;1.67;1.40;;;12.70;99.90;;;;;;5075554;28;20472;-79
2023/02/24 12:19:56;;;;;;;3.10;1.23;;;12.50;99.90;;;;;;5075279;28;20934;-79
2023/02/24 12:22:28;;;;;;;1.23;1.10;;;12.30;99.90;;;;;;5075570;28;20436;-78
2023/02/24 12:24:55;;;;;;;0.97;0.60;;;12.30;99.90;;;;;;5075171;28;20440;-79
2023/02/24 12:27:33;;;;;;;7.60;2.40;;;12.50;99.90;;;;;;5075336;28;20472;-79
2023/02/24 12:30:32;;;;;;;2.23;0.90;;;12.60;99.90;;;;;;5074958;28;21024;-79
2023/02/24 12:33:08;;;;;;;1.20;1.03;;;12.70;99.90;;;;;;5075311;28;20449;-79
2023/02/24 12:35:44;;;;;;;0.90;0.70;;;12.70;99.90;;;;;;5076073;28;20456;-78
2023/02/24 12:38:27;;;;;;;1.37;1.00;;;12.70;99.90;;;;;;5074760;28;20542;-79
2023/02/24 12:40:59;;;;;;;1.53;0.93;;;12.50;99.90;;;;;;5074886;28;20808;-79
2023/02/24 12:43:31;;;;;;;3.43;1.40;;;12.40;99.90;;;;;;5073872;28;20434;-79
2023/02/24 12:46:05;;;;;;;0.83;0.60;;;12.30;99.90;;;;;;5074994;28;20457;-79
2023/02/24 12:48:58;;;;;;;2.90;1.03;;;12.30;99.90;;;;;;5074908;28;20868;-79
2023/02/24 12:51:32;;;;;;;0.73;0.73;;;12.40;99.90;;;;;;5072417;28;20484;-79
2023/02/24 12:54:06;;;;;;;1.30;1.10;;;12.30;99.90;;;;;;5074894;28;20434;-79
2023/02/24 12:56:41;;;;;;;4.23;1.77;;;12.30;99.90;;;;;;5074506;28;20812;-79
2023/02/24 12:59:12;;;;;;;3.00;0.90;;;12.30;99.90;;;;;;5074717;28;20893;-79
2023/02/24 13:01:48;;;;;;;2.00;0.90;;;12.20;99.90;;;;;;5074338;28;20441;-79
2023/02/24 13:04:28;;;;;;;4.73;1.20;;;12.20;99.90;;;;;;5074669;28;20430;-79
2023/02/24 13:07:04;;;;;;;3.10;1.47;;;12.30;99.90;;;;;;5074562;28;20477;-79
2023/02/24 13:09:40;;;;;;;4.33;1.20;;;12.40;99.90;;;;;;5074471;28;20465;-79
2023/02/24 13:12:15;;;;;;;3.10;1.33;;;12.40;99.90;;;;;;5075347;28;20477;-79
2023/02/24 13:14:43;;;;;;;1.97;1.30;;;12.50;99.90;;;;;;5074437;28;20430;-79
2023/02/24 13:17:20;;;;;;;1.53;1.17;;;12.50;99.90;;;;;;5074366;28;20466;-79
2023/02/24 13:19:48;;;;;;;0.90;0.90;;;12.60;99.90;;;;;;5074397;28;20441;-79
2023/02/24 13:22:25;;;;;;;2.80;1.07;;;12.60;99.90;;;;;;5074365;28;20445;-79
2023/02/24 13:25:20;;;;;;;0.80;0.80;;;12.70;99.90;;;;;;5074277;28;20432;-79
2023/02/24 13:27:58;;;;;;;3.80;0.93;;;12.60;99.90;;;;;;5074149;28;20531;-79
2023/02/24 13:30:28;;;;;;;1.13;0.80;;;12.60;99.90;;;;;;5074131;28;20881;-79
2023/02/24 13:33:05;;;;;;;1.90;1.30;;;12.50;99.90;;;;;;5075223;28;20452;-79